createdAt,value
2022-10-23T00:02:47.002Z,8.45
2022-10-23T00:05:54.889Z,8.54
2022-10-23T00:12:47.141Z,8.63
2022-10-23T00:16:05.312Z,8.43
2022-10-23T00:19:50.821Z,8.88
2022-10-23T00:26:46.383Z,8.78
2022-10-23T00:34:11.252Z,8.46
2022-10-23T00:39:56.795Z,9.29
2022-10-23T00:48:14.186Z,9.13
2022-10-23T00:59:37.056Z,10.12
2022-10-23T01:09:39.332Z,9.81
2022-10-23T01:12:42.605Z,9.83
2022-10-23T01:15:21.503Z,9.77
2022-10-23T01:18:55.197Z,9.87
2022-10-23T01:21:36.050Z,10.30
2022-10-23T01:24:36.022Z,10.05
2022-10-23T01:27:16.254Z,10.22
2022-10-23T01:29:44.992Z,10.11
2022-10-23T01:32:51.450Z,10.30
2022-10-23T01:35:36.193Z,10.14
2022-10-23T01:38:12.465Z,9.82
2022-10-23T01:40:52.329Z,10.16
2022-10-23T01:44:07.380Z,10.02
2022-10-23T01:46:43.454Z,10.05
2022-10-23T01:49:15.963Z,9.84
2022-10-23T01:52:38.932Z,10.28
2022-10-23T01:55:14.711Z,10.39
2022-10-23T01:57:49.454Z,10.42
2022-10-23T02:08:48.479Z,10.69
2022-10-23T02:11:24.447Z,10.52
2022-10-23T02:19:17.771Z,10.55
2022-10-23T02:22:45.138Z,10.63
2022-10-23T02:31:25.174Z,10.58
2022-10-23T02:39:53.485Z,10.38
2022-10-23T02:55:49.873Z,10.73
2022-10-23T02:59:47.421Z,10.77
2022-10-23T03:06:39.560Z,10.98
2022-10-23T03:09:11.068Z,11.15
2022-10-23T03:11:44.775Z,11.22
2022-10-23T03:14:16.332Z,11.41
2022-10-23T03:17:49.126Z,11.47
2022-10-23T03:20:20.029Z,11.43
2022-10-23T03:27:20.991Z,10.95
2022-10-23T03:30:09.673Z,11.07
2022-10-23T03:33:44.776Z,11.04
2022-10-23T03:36:15.979Z,11.50
2022-10-23T03:38:47.082Z,11.41
2022-10-23T03:41:17.054Z,11.34
2022-10-23T03:43:47.901Z,11.28
2022-10-23T03:46:17.809Z,11.28
2022-10-23T03:48:53.305Z,11.58
2022-10-23T03:51:31.467Z,11.29
2022-10-23T03:54:02.167Z,11.42
2022-10-23T03:56:33.337Z,11.65
2022-10-23T03:59:04.492Z,11.78
2022-10-23T04:01:35.507Z,11.48
2022-10-23T04:04:05.490Z,11.12
2022-10-23T04:06:37.442Z,11.20
2022-10-23T04:09:08.958Z,11.37
2022-10-23T04:11:39.591Z,11.23
2022-10-23T04:14:16.127Z,11.18
2022-10-23T04:16:47.837Z,11.00
2022-10-23T04:19:17.843Z,10.95
2022-10-23T04:21:52.222Z,11.13
2022-10-23T04:24:25.618Z,11.16
2022-10-23T04:27:10.140Z,11.45
2022-10-23T04:29:40.245Z,11.44
2022-10-23T04:32:12.709Z,11.43
2022-10-23T04:34:45.388Z,11.61
2022-10-23T04:37:15.900Z,11.55
2022-10-23T04:39:48.212Z,11.53
2022-10-23T04:42:20.086Z,11.47
2022-10-23T04:44:53.261Z,11.42
2022-10-23T04:47:36.463Z,11.14
2022-10-23T04:50:09.081Z,11.44
2022-10-23T04:53:05.564Z,10.98
2022-10-23T04:56:08.505Z,11.29
2022-10-23T04:58:47.472Z,11.24
2022-10-23T05:01:17.110Z,11.29
2022-10-23T05:03:49.466Z,11.29
2022-10-23T05:06:21.946Z,11.31
2022-10-23T05:09:13.307Z,11.39
2022-10-23T05:12:05.342Z,11.34
2022-10-23T05:14:39.965Z,11.35
2022-10-23T05:17:20.491Z,11.33
2022-10-23T05:19:56.341Z,11.33
2022-10-23T05:22:30.144Z,11.51
2022-10-23T05:25:03.265Z,11.75
2022-10-23T05:27:36.936Z,11.75
2022-10-23T05:30:13.542Z,11.93
2022-10-23T05:32:43.465Z,11.67
2022-10-23T05:35:17.827Z,11.59
2022-10-23T05:37:53.477Z,11.81
2022-10-23T05:40:31.278Z,11.74
2022-10-23T05:43:09.682Z,11.48
2022-10-23T05:46:12.050Z,11.74
2022-10-23T05:49:02.804Z,11.61
2022-10-23T05:51:52.741Z,11.78
2022-10-23T05:54:56.033Z,11.30
2022-10-23T05:57:44.993Z,11.40
2022-10-23T06:00:17.258Z,11.67
2022-10-23T06:03:06.068Z,11.40
2022-10-23T06:05:43.300Z,11.54
2022-10-23T06:08:30.000Z,11.78
2022-10-23T06:11:12.320Z,11.80
2022-10-23T06:13:45.835Z,11.95
2022-10-23T06:16:19.156Z,11.99
2022-10-23T06:18:49.278Z,12.01
2022-10-23T06:21:21.440Z,11.89
2022-10-23T06:23:53.654Z,12.03
2022-10-23T06:26:49.317Z,11.94
2022-10-23T06:29:28.899Z,12.01
2022-10-23T06:32:01.894Z,11.75
2022-10-23T06:34:33.443Z,11.78
2022-10-23T06:37:07.786Z,11.74
2022-10-23T06:39:47.034Z,11.46
2022-10-23T06:42:36.981Z,11.59
2022-10-23T06:45:32.868Z,11.52
2022-10-23T06:48:16.239Z,11.61
2022-10-23T06:51:09.083Z,11.68
2022-10-23T06:53:44.517Z,11.48
2022-10-23T06:56:37.087Z,11.73
2022-10-23T06:59:11.564Z,11.88
2022-10-23T07:01:44.266Z,11.45
2022-10-23T07:04:15.476Z,11.48
2022-10-23T07:06:47.867Z,11.34
2022-10-23T07:09:17.426Z,11.15
2022-10-23T07:12:01.330Z,11.55
2022-10-23T07:14:44.107Z,11.66
2022-10-23T07:17:15.780Z,11.79
2022-10-23T07:19:47.673Z,11.71
2022-10-23T07:22:20.184Z,11.80
2022-10-23T07:25:04.775Z,11.84
2022-10-23T07:27:40.931Z,11.61
2022-10-23T07:30:16.196Z,11.82
2022-10-23T07:32:53.311Z,11.72
2022-10-23T07:35:41.462Z,12.04
2022-10-23T07:38:16.376Z,11.88
2022-10-23T07:40:49.192Z,11.95
2022-10-23T07:43:21.712Z,11.90
2022-10-23T07:46:01.187Z,11.96
2022-10-23T07:48:40.448Z,11.77
2022-10-23T07:51:17.528Z,12.18
2022-10-23T07:54:05.182Z,11.96
2022-10-23T07:57:04.233Z,12.08
2022-10-23T08:00:05.343Z,12.23
2022-10-23T08:02:47.422Z,12.06
2022-10-23T08:05:20.787Z,11.94
2022-10-23T08:08:01.406Z,11.98
2022-10-23T08:10:37.367Z,12.23
2022-10-23T08:13:17.350Z,12.00
2022-10-23T08:16:07.124Z,11.87
2022-10-23T08:19:07.979Z,12.11
2022-10-23T08:21:41.149Z,11.74
2022-10-23T08:24:15.473Z,11.75
2022-10-23T08:26:50.469Z,12.03
2022-10-23T08:29:25.243Z,11.89
2022-10-23T08:32:05.513Z,11.93
2022-10-23T08:34:53.125Z,11.83
2022-10-23T08:37:39.956Z,12.31
2022-10-23T08:40:17.429Z,11.81
2022-10-23T08:43:07.075Z,11.73
2022-10-23T08:45:44.019Z,11.78
2022-10-23T08:48:41.505Z,11.64
2022-10-23T08:51:45.925Z,11.64
2022-10-23T08:54:20.874Z,11.57
2022-10-23T08:57:21.901Z,11.57
2022-10-23T09:00:03.718Z,11.59
2022-10-23T09:02:46.871Z,11.62
2022-10-23T09:05:23.151Z,11.74
2022-10-23T09:08:09.809Z,11.91
2022-10-23T09:10:55.608Z,12.00
2022-10-23T09:13:33.107Z,12.11
2022-10-23T09:16:04.465Z,11.97
2022-10-23T09:18:35.976Z,11.96
2022-10-23T09:21:09.352Z,12.05
2022-10-23T09:23:40.864Z,11.81
2022-10-23T09:26:17.378Z,11.83
2022-10-23T09:28:49.386Z,12.29
2022-10-23T09:31:22.143Z,11.99
2022-10-23T09:34:10.978Z,12.20
2022-10-23T09:36:51.594Z,12.16
2022-10-23T09:39:32.038Z,11.81
2022-10-23T09:42:17.557Z,11.90
2022-10-23T09:44:55.648Z,12.06
2022-10-23T09:47:35.369Z,12.14
2022-10-23T09:50:31.659Z,12.11
2022-10-23T09:53:05.277Z,12.10
2022-10-23T09:55:37.348Z,12.26
2022-10-23T09:58:08.226Z,12.12
2022-10-23T10:00:55.415Z,12.07
2022-10-23T10:03:49.554Z,11.94
2022-10-23T10:06:25.549Z,12.10
2022-10-23T10:09:09.260Z,12.23
2022-10-23T10:11:40.546Z,12.16
2022-10-23T10:14:29.819Z,12.09
2022-10-23T10:17:20.114Z,12.07
2022-10-23T10:20:05.404Z,11.85
2022-10-23T10:22:43.292Z,11.89
2022-10-23T10:25:16.186Z,11.88
2022-10-23T10:27:49.224Z,11.80
2022-10-23T10:30:20.616Z,11.87
2022-10-23T10:33:00.191Z,11.83
2022-10-23T10:35:41.441Z,11.85
2022-10-23T10:38:20.819Z,11.62
2022-10-23T10:41:06.092Z,11.80
2022-10-23T10:43:45.811Z,11.72
2022-10-23T10:46:39.693Z,12.03
2022-10-23T10:49:28.733Z,11.95
2022-10-23T10:52:29.364Z,12.11
2022-10-23T10:55:29.382Z,11.92
2022-10-23T10:58:04.651Z,11.84
2022-10-23T11:00:35.437Z,11.96
2022-10-23T11:03:34.805Z,12.10
2022-10-23T11:06:07.064Z,11.73
2022-10-23T11:08:57.553Z,11.98
2022-10-23T11:11:37.483Z,11.80
2022-10-23T11:14:23.840Z,11.99
2022-10-23T11:17:16.872Z,11.87
2022-10-23T11:20:09.451Z,11.86
2022-10-23T11:22:50.980Z,11.44
2022-10-23T11:25:52.625Z,11.08
2022-10-23T11:28:49.002Z,11.02
2022-10-23T11:31:31.412Z,11.08
2022-10-23T11:34:05.098Z,11.14
2022-10-23T11:36:41.955Z,11.70
2022-10-23T11:39:20.566Z,12.09
2022-10-23T11:41:56.002Z,12.11
2022-10-23T11:44:52.300Z,12.03
2022-10-23T11:47:40.364Z,12.23
2022-10-23T11:50:10.794Z,12.15
2022-10-23T11:53:16.419Z,11.99
2022-10-23T11:56:17.737Z,12.23
2022-10-23T11:58:52.962Z,12.26
2022-10-23T12:01:36.321Z,11.55
2022-10-23T12:04:17.297Z,11.07
2022-10-23T12:07:31.782Z,11.83
2022-10-23T12:10:03.344Z,11.03
2022-10-23T12:12:35.805Z,10.96
2022-10-23T12:15:09.094Z,11.50
2022-10-23T12:17:44.317Z,11.70
2022-10-23T12:20:23.689Z,11.29
2022-10-23T12:23:08.296Z,11.21
2022-10-23T12:26:04.622Z,11.48
2022-10-23T12:28:36.980Z,11.60
2022-10-23T12:31:24.315Z,11.34
2022-10-23T12:33:53.828Z,11.82
2022-10-23T12:36:37.282Z,11.81
2022-10-23T12:39:29.704Z,11.51
2022-10-23T12:42:04.092Z,11.60
2022-10-23T12:44:34.376Z,11.28
2022-10-23T12:47:20.495Z,11.65
2022-10-23T12:53:12.811Z,11.06
2022-10-23T12:55:53.330Z,11.05
2022-10-23T12:58:41.437Z,11.28
2022-10-23T13:01:39.365Z,10.96
2022-10-23T13:04:31.791Z,11.21
2022-10-23T13:07:12.859Z,11.28
2022-10-23T13:09:45.577Z,11.30
2022-10-23T13:12:37.626Z,11.08
2022-10-23T13:15:09.536Z,11.03
2022-10-23T13:18:03.472Z,11.26
2022-10-23T13:29:38.518Z,11.04
2022-10-23T13:36:13.993Z,10.90
2022-10-23T13:38:45.626Z,10.85
2022-10-23T13:41:58.024Z,10.71
2022-10-23T13:45:25.315Z,10.82
2022-10-23T13:53:00.609Z,10.20
2022-10-23T13:55:45.474Z,10.25
2022-10-23T13:58:20.685Z,10.08
2022-10-23T14:00:52.228Z,9.87
2022-10-23T14:03:25.629Z,9.48
2022-10-23T14:06:07.934Z,9.41
2022-10-23T14:09:37.583Z,9.28
2022-10-23T14:13:04.720Z,9.25
2022-10-23T14:15:37.066Z,9.19
2022-10-23T14:19:07.072Z,9.25
2022-10-23T14:22:26.154Z,9.06
2022-10-23T14:25:09.336Z,9.30
2022-10-23T14:27:53.115Z,9.00
2022-10-23T14:30:24.009Z,9.25
2022-10-23T14:32:55.952Z,9.08
2022-10-23T14:35:31.137Z,9.19
2022-10-23T14:38:07.374Z,8.92
2022-10-23T14:40:45.086Z,8.63
2022-10-23T14:43:17.380Z,9.38
2022-10-23T14:45:49.635Z,9.58
2022-10-23T14:48:24.649Z,9.54
2022-10-23T14:51:04.281Z,9.31
2022-10-23T14:54:37.879Z,9.16
2022-10-23T14:57:43.178Z,9.21
2022-10-23T15:00:16.497Z,9.49
2022-10-23T15:02:52.371Z,9.55
2022-10-23T15:11:16.635Z,9.55
2022-10-23T15:13:45.280Z,9.26
2022-10-23T15:16:28.089Z,9.47
2022-10-23T15:19:18.701Z,9.85
2022-10-23T15:21:52.789Z,9.68
2022-10-23T15:29:48.490Z,9.45
2022-10-23T15:32:17.638Z,9.80
2022-10-23T15:38:43.491Z,9.37
2022-10-23T15:41:20.094Z,9.35
2022-10-23T15:46:33.980Z,9.28
2022-10-23T15:49:53.068Z,9.58
2022-10-23T15:56:02.764Z,9.58
2022-10-23T15:58:40.581Z,9.67
2022-10-23T16:01:17.093Z,9.68
2022-10-23T16:04:05.789Z,9.17
2022-10-23T16:06:36.530Z,9.25
2022-10-23T16:09:44.360Z,9.62
2022-10-23T16:12:39.915Z,9.32
2022-10-23T16:15:39.391Z,9.61
2022-10-23T16:18:37.503Z,9.64
2022-10-23T16:21:21.205Z,9.35
2022-10-23T16:24:22.115Z,9.31
2022-10-23T16:27:35.963Z,9.12
2022-10-23T16:30:40.293Z,9.52
2022-10-23T16:33:22.724Z,9.06
2022-10-23T16:36:16.560Z,9.44
2022-10-23T16:39:13.947Z,9.39
2022-10-23T16:42:11.767Z,8.98
2022-10-23T16:45:03.444Z,9.58
2022-10-23T16:48:03.615Z,9.31
2022-10-23T16:51:15.234Z,9.08
2022-10-23T16:54:31.667Z,8.99
2022-10-23T16:57:03.639Z,8.70
2022-10-23T16:59:43.901Z,9.22
2022-10-23T17:02:48.609Z,8.54
2022-10-23T17:06:12.434Z,8.90
2022-10-23T17:11:57.907Z,8.73
2022-10-23T17:14:33.687Z,9.16
2022-10-23T17:17:16.171Z,9.23
2022-10-23T17:20:09.721Z,9.14
2022-10-23T17:22:48.037Z,8.98
2022-10-23T17:25:23.030Z,9.07
2022-10-23T17:28:03.917Z,8.97
2022-10-23T17:30:40.257Z,8.52
2022-10-23T17:33:09.697Z,8.52
2022-10-23T17:35:56.477Z,8.97
2022-10-23T17:42:03.477Z,8.72
2022-10-23T17:44:33.091Z,8.59
2022-10-23T17:47:09.291Z,8.46
2022-10-23T17:49:53.868Z,8.54
2022-10-23T17:52:45.934Z,8.64
2022-10-23T17:55:17.687Z,8.76
2022-10-23T17:57:48.163Z,8.63
2022-10-23T18:01:05.626Z,8.44
2022-10-23T18:03:41.451Z,8.90
2022-10-23T18:06:52.183Z,8.82
2022-10-23T18:14:01.042Z,8.95
2022-10-23T18:16:53.760Z,9.03
2022-10-23T18:19:24.378Z,8.99
2022-10-23T18:22:16.038Z,8.73
2022-10-23T18:27:47.453Z,8.63
2022-10-23T18:34:44.921Z,8.90
2022-10-23T18:37:16.021Z,8.26
2022-10-23T18:40:03.304Z,8.62
2022-10-23T18:42:32.929Z,8.45
2022-10-23T18:45:12.054Z,8.39
2022-10-23T18:47:53.215Z,8.30
2022-10-23T18:50:41.864Z,8.38
2022-10-23T18:53:14.154Z,8.76
2022-10-23T18:56:05.487Z,8.75
2022-10-23T18:58:43.072Z,8.36
2022-10-23T19:01:44.955Z,8.41
2022-10-23T19:04:50.387Z,8.45
2022-10-23T19:11:13.607Z,8.72
2022-10-23T19:13:53.107Z,8.37
2022-10-23T19:17:12.396Z,8.65
2022-10-23T19:20:10.278Z,8.55
2022-10-23T19:23:07.169Z,8.76
2022-10-23T19:36:34.796Z,8.14
2022-10-23T19:39:15.289Z,8.77
2022-10-23T20:02:29.931Z,8.25
2022-10-23T20:05:53.946Z,7.96
2022-10-23T20:08:53.913Z,8.40
2022-10-23T20:12:04.481Z,8.03
2022-10-23T20:15:45.825Z,8.04
2022-10-23T20:22:26.011Z,8.42
2022-10-23T20:25:30.442Z,8.66
2022-10-23T20:29:29.519Z,7.94
2022-10-23T20:36:24.833Z,8.35
2022-10-23T20:47:23.183Z,8.65
2022-10-23T20:57:05.699Z,8.33
2022-10-23T21:04:34.180Z,8.56
2022-10-23T21:11:21.896Z,8.58
2022-10-23T21:13:54.790Z,8.52
2022-10-23T21:17:10.320Z,8.35
2022-10-23T21:19:52.389Z,8.01
2022-10-23T21:38:38.897Z,8.53
2022-10-23T21:41:13.202Z,8.69
2022-10-23T21:43:42.430Z,8.32
2022-10-23T21:46:23.827Z,8.70
2022-10-23T21:49:04.362Z,8.23
2022-10-23T21:51:45.016Z,8.13
2022-10-23T21:54:17.769Z,8.50
2022-10-23T21:56:51.882Z,8.77
2022-10-23T21:59:27.784Z,8.44
2022-10-23T22:02:41.975Z,8.48
2022-10-23T22:08:52.625Z,8.52
2022-10-23T22:11:23.666Z,8.44
2022-10-23T22:13:53.391Z,8.73
2022-10-23T22:20:47.862Z,8.59
2022-10-23T22:28:17.679Z,8.80
2022-10-23T22:31:21.741Z,8.84
2022-10-23T22:33:55.936Z,9.31
2022-10-23T22:36:40.098Z,9.32
2022-10-23T22:39:30.209Z,8.92
2022-10-23T22:42:17.608Z,8.99
2022-10-23T22:44:51.175Z,9.30
2022-10-23T22:47:21.240Z,9.10
2022-10-23T22:49:52.494Z,9.11
2022-10-23T22:52:24.372Z,9.16
2022-10-23T22:54:55.499Z,9.50
2022-10-23T22:57:33.501Z,9.18
2022-10-23T23:00:06.871Z,9.72
2022-10-23T23:02:45.655Z,9.40
2022-10-23T23:05:17.782Z,8.50
2022-10-23T23:07:49.195Z,9.69
2022-10-23T23:13:53.140Z,9.78
2022-10-23T23:16:34.123Z,9.96
2022-10-23T23:19:05.881Z,9.76
2022-10-23T23:21:37.532Z,9.83
2022-10-23T23:24:09.699Z,9.80
2022-10-23T23:26:40.962Z,10.22
2022-10-23T23:29:15.295Z,9.72
2022-10-23T23:31:49.866Z,9.99
2022-10-23T23:34:33.063Z,9.87
2022-10-23T23:37:14.077Z,10.27
2022-10-23T23:39:45.901Z,9.91
2022-10-23T23:42:17.133Z,10.23
2022-10-23T23:47:42.252Z,10.40
2022-10-23T23:50:16.052Z,10.33
2022-10-23T23:52:47.614Z,10.24
2022-10-23T23:55:21.570Z,9.80
2022-10-23T23:57:51.771Z,10.25
